Observation data for Plains on 02/23/2019      Previous  Date  Next       Current Mesonet Observations  Soil Data  Daily Summary Page  Observations in Plain Language
KPPS 230600Z 23012KT 08/07 A2974 RMK A01 T00780067  RH  095%=      5-min Rain = 0
KPPS 230605Z 19010KT 08/07 A2974 RMK A01 T00790068  RH  095%=      5-min Rain = 0
KPPS 230610Z 19013G18KT 08/07 A2974 RMK A01 T00810068  RH  094%=      5-min Rain = 0.01
KPPS 230615Z 20015G23KT 08/07 A2974 RMK A01 T00840069  RH  092%=      5-min Rain = 0
KPPS 230620Z 21014KT 09/07 A2973 RMK A01 T00850068  RH  091%=      5-min Rain = 0
KPPS 230625Z 21010KT 08/07 A2973 RMK A01 T00830067  RH  092%=      5-min Rain = 0
KPPS 230630Z 21010KT 08/07 A2973 RMK A01 T00820067  RH  093%=      5-min Rain = 0
KPPS 230635Z 21010KT 08/07 A2974 RMK A01 T00810067  RH  094%=      5-min Rain = 0
KPPS 230640Z 21010KT 08/07 A2974 RMK A01 T00800068  RH  094%=      5-min Rain = 0
KPPS 230645Z 21011G16KT 08/07 A2974 RMK A01 T00800068  RH  094%=      5-min Rain = 0
KPPS 230650Z 21012G17KT 08/07 A2975 RMK A01 T00800068  RH  095%=      5-min Rain = 0
KPPS 230655Z 22011G18KT 08/07 A2975 RMK A01 T00790068  RH  095%=      5-min Rain = 0
KPPS 230700Z 22014KT 08/07 A2974 RMK A01 T00800066  RH  093%=      5-min Rain = 0
KPPS 230705Z 23015G22KT 08/06 A2974 RMK A01 T00810057  RH  087%=      5-min Rain = 0
KPPS 230710Z 24016KT 08/04 A2973 RMK A01 T00810044  RH  079%=      5-min Rain = 0
KPPS 230715Z 24018G23KT 08/03 A2974 RMK A01 T00770030  RH  073%=      5-min Rain = 0
KPPS 230720Z 24019G25KT 08/02 A2974 RMK A01 T00750024  RH  071%=      5-min Rain = 0
KPPS 230725Z 26022G31KT 07/03 A2975 RMK A01 T00710026  RH  074%=      5-min Rain = 0
KPPS 230730Z 25016G22KT 07/03 A2976 RMK A01 T00670031  RH  079%=      5-min Rain = 0
KPPS 230735Z 25015G21KT 06/03 A2976 RMK A01 T00640031  RH  081%=      5-min Rain = 0
KPPS 230740Z 25014KT 06/03 A2976 RMK A01 T00630032  RH  082%=      5-min Rain = 0
KPPS 230745Z 25012G17KT 06/03 A2975 RMK A01 T00620031  RH  082%=      5-min Rain = 0
KPPS 230750Z 25009KT 06/03 A2974 RMK A01 T00620031  RH  082%=      5-min Rain = 0
KPPS 230755Z 24010KT 06/03 A2975 RMK A01 T00610031  RH  082%=      5-min Rain = 0
KPPS 230800Z 23012G17KT 06/03 A2976 RMK A01 T00620027  RH  079%=      5-min Rain = 0
KPPS 230805Z 24016KT 07/03 A2976 RMK A01 T00650026  RH  077%=      5-min Rain = 0
KPPS 230810Z 24014KT 06/03 A2976 RMK A01 T00630028  RH  080%=      5-min Rain = 0
KPPS 230815Z 25014G19KT 06/02 A2975 RMK A01 T00630023  RH  077%=      5-min Rain = 0
KPPS 230820Z 23009G14KT 06/02 A2974 RMK A01 T00640017  RH  073%=      5-min Rain = 0
KPPS 230825Z 23009KT 06/01 A2973 RMK A01 T00640007  RH  068%=      5-min Rain = 0
KPPS 230830Z 23012KT 06/M01 A2974 RMK A01 T00631007  RH  062%=      5-min Rain = 0
KPPS 230835Z 23014G22KT 06/M01 A2974 RMK A01 T00601011  RH  061%=      5-min Rain = 0
KPPS 230840Z 23019G26KT 06/M02 A2975 RMK A01 T00581018  RH  058%=      5-min Rain = 0
KPPS 230845Z 24024G35KT 06/M02 A2975 RMK A01 T00561020  RH  059%=      5-min Rain = 0
KPPS 230850Z 24029G40KT 05/M02 A2976 RMK A01 T00531024  RH  058%=      5-min Rain = 0
KPPS 230855Z 24026G32KT 05/M02 A2977 RMK A01 T00461022  RH  062%=      5-min Rain = 0
KPPS 230900Z 24023G31KT 04/M02 A2977 RMK A01 T00431021  RH  063%=      5-min Rain = 0
KPPS 230905Z 24024G32KT 04/M02 A2977 RMK A01 T00401021  RH  065%=      5-min Rain = 0
KPPS 230910Z 23024G34KT 04/M03 A2976 RMK A01 T00381025  RH  064%=      5-min Rain = 0
KPPS 230915Z 23021G32KT 04/M03 A2976 RMK A01 T00361027  RH  064%=      5-min Rain = 0
KPPS 230920Z 23025G35KT 03/M03 A2975 RMK A01 T00331028  RH  065%=      5-min Rain = 0
KPPS 230925Z 23025G39KT 03/M03 A2975 RMK A01 T00311029  RH  065%=      5-min Rain = 0
KPPS 230930Z 23025G32KT 03/M03 A2974 RMK A01 T00291030  RH  066%=      5-min Rain = 0
KPPS 230935Z 23028G35KT 03/M03 A2974 RMK A01 T00281032  RH  065%=      5-min Rain = 0
KPPS 230940Z 24029G36KT 03/M03 A2974 RMK A01 T00271033  RH  065%=      5-min Rain = 0
KPPS 230945Z 23030G40KT 03/M04 A2975 RMK A01 T00271035  RH  064%=      5-min Rain = 0
KPPS 230950Z 24027G36KT 03/M04 A2976 RMK A01 T00251035  RH  065%=      5-min Rain = 0
KPPS 230955Z 24025G33KT 02/M04 A2976 RMK A01 T00241035  RH  065%=      5-min Rain = 0
KPPS 231000Z 24026G33KT 02/M04 A2976 RMK A01 T00231036  RH  065%=      5-min Rain = 0
KPPS 231005Z 24027G33KT 02/M04 A2976 RMK A01 T00231036  RH  065%=      5-min Rain = 0
KPPS 231010Z 24026G32KT 02/M04 A2976 RMK A01 T00221037  RH  065%=      5-min Rain = 0
KPPS 231015Z 24026G37KT 02/M04 A2976 RMK A01 T00221038  RH  065%=      5-min Rain = 0
KPPS 231020Z 24024G33KT 02/M04 A2977 RMK A01 T00211038  RH  066%=      5-min Rain = 0
KPPS 231025Z 25025G32KT 02/M04 A2977 RMK A01 T00201038  RH  065%=      5-min Rain = 0
KPPS 231030Z 25023G28KT 02/M04 A2978 RMK A01 T00191038  RH  066%=      5-min Rain = 0
KPPS 231035Z 25023KT 02/M04 A2978 RMK A01 T00181038  RH  066%=      5-min Rain = 0
KPPS 231040Z 25020G26KT 02/M04 A2978 RMK A01 T00171039  RH  067%=      5-min Rain = 0
KPPS 231045Z 25019KT 02/M04 A2979 RMK A01 T00161038  RH  068%=      5-min Rain = 0
KPPS 231050Z 24015G20KT 01/M04 A2978 RMK A01 T00141038  RH  069%=      5-min Rain = 0
KPPS 231055Z 24014KT 01/M04 A2978 RMK A01 T00131038  RH  069%=      5-min Rain = 0
KPPS 231100Z 24012KT 01/M04 A2978 RMK A01 T00101038  RH  071%=      5-min Rain = 0
KPPS 231105Z 24012KT 01/M04 A2978 RMK A01 T00091038  RH  071%=      5-min Rain = 0
KPPS 231110Z 23012KT 01/M04 A2978 RMK A01 T00091038  RH  071%=      5-min Rain = 0
KPPS 231115Z 23010KT 01/M04 A2978 RMK A01 T00081038  RH  072%=      5-min Rain = 0
KPPS 231120Z 23011KT 01/M04 A2978 RMK A01 T00081038  RH  072%=      5-min Rain = 0
KPPS 231125Z 24013G18KT 01/M04 A2978 RMK A01 T00091039  RH  071%=      5-min Rain = 0
KPPS 231130Z 24015G23KT 01/M04 A2978 RMK A01 T00111040  RH  069%=      5-min Rain = 0
KPPS 231135Z 24016KT 01/M04 A2978 RMK A01 T00121041  RH  068%=      5-min Rain = 0
KPPS 231140Z 24017G23KT 01/M04 A2978 RMK A01 T00121042  RH  067%=      5-min Rain = 0
KPPS 231145Z 24019G26KT 01/M04 A2978 RMK A01 T00141044  RH  065%=      5-min Rain = 0
KPPS 231150Z 24021KT 01/M05 A2977 RMK A01 T00141045  RH  065%=      5-min Rain = 0
KPPS 231155Z 24022G29KT 01/M05 A2977 RMK A01 T00141046  RH  065%=      5-min Rain = 0
KPPS 231200Z 24022G28KT 02/M05 A2977 RMK A01 T00151046  RH  064%=      5-min Rain = 0
KPPS 231205Z 24022G29KT 01/M05 A2976 RMK A01 T00141047  RH  064%=      5-min Rain = 0
KPPS 231210Z 24023G29KT 01/M05 A2976 RMK A01 T00141048  RH  064%=      5-min Rain = 0
KPPS 231215Z 24022G31KT 01/M05 A2977 RMK A01 T00131047  RH  064%=      5-min Rain = 0
KPPS 231220Z 25024G31KT 01/M05 A2977 RMK A01 T00131048  RH  064%=      5-min Rain = 0
KPPS 231225Z 24024G29KT 01/M05 A2978 RMK A01 T00141049  RH  063%=      5-min Rain = 0
KPPS 231230Z 24022G28KT 01/M05 A2978 RMK A01 T00131050  RH  063%=      5-min Rain = 0
KPPS 231235Z 24021G26KT 01/M05 A2978 RMK A01 T00121050  RH  063%=      5-min Rain = 0
KPPS 231240Z 24021G26KT 01/M05 A2978 RMK A01 T00131051  RH  063%=      5-min Rain = 0
KPPS 231245Z 23020G25KT 01/M05 A2978 RMK A01 T00111051  RH  063%=      5-min Rain = 0
KPPS 231250Z 23020G25KT 01/M05 A2978 RMK A01 T00111052  RH  063%=      5-min Rain = 0
KPPS 231255Z 23022G28KT 01/M05 A2978 RMK A01 T00111054  RH  062%=      5-min Rain = 0
KPPS 231300Z 23021G30KT 01/M06 A2978 RMK A01 T00111055  RH  062%=      5-min Rain = 0
KPPS 231305Z 23023G29KT 01/M06 A2978 RMK A01 T00111056  RH  061%=      5-min Rain = 0
KPPS 231310Z 23023G30KT 01/M06 A2978 RMK A01 T00091056  RH  062%=      5-min Rain = 0
KPPS 231315Z 24022G27KT 01/M06 A2978 RMK A01 T00091056  RH  062%=      5-min Rain = 0
KPPS 231320Z 24022G27KT 01/M06 A2979 RMK A01 T00081056  RH  062%=      5-min Rain = 0
KPPS 231325Z 24024G29KT 01/M06 A2978 RMK A01 T00111058  RH  060%=      5-min Rain = 0
KPPS 231330Z 24024G31KT 01/M06 A2978 RMK A01 T00121060  RH  059%=      5-min Rain = 0
KPPS 231335Z 23023G28KT 01/M06 A2979 RMK A01 T00121061  RH  058%=      5-min Rain = 0
KPPS 231340Z 23020G27KT 01/M06 A2979 RMK A01 T00111060  RH  059%=      5-min Rain = 0
KPPS 231345Z 23020G26KT 01/M06 A2979 RMK A01 T00091058  RH  061%=      5-min Rain = 0
KPPS 231350Z 23019G26KT 01/M06 A2979 RMK A01 T00081057  RH  062%=      5-min Rain = 0
KPPS 231355Z 23018G25KT 01/M06 A2979 RMK A01 T00081057  RH  062%=      5-min Rain = 0
KPPS 231400Z 23019G26KT 01/M06 A298 RMK A01 T00091057  RH  061%=      5-min Rain = 0
KPPS 231405Z 23018G26KT 01/M06 A2981 RMK A01 T00111057  RH  061%=      5-min Rain = 0
KPPS 231410Z 23020G26KT 01/M06 A2981 RMK A01 T00121058  RH  060%=      5-min Rain = 0
KPPS 231415Z 23020G26KT 01/M06 A2982 RMK A01 T00141058  RH  059%=      5-min Rain = 0
KPPS 231420Z 23019G25KT 02/M06 A2982 RMK A01 T00151057  RH  059%=      5-min Rain = 0
KPPS 231425Z 23019G26KT 02/M06 A2982 RMK A01 T00161057  RH  058%=      5-min Rain = 0
KPPS 231430Z 23021G27KT 02/M06 A2982 RMK A01 T00181057  RH  058%=      5-min Rain = 0
KPPS 231435Z 23021G27KT 02/M06 A2982 RMK A01 T00191057  RH  057%=      5-min Rain = 0
KPPS 231440Z 23021G27KT 02/M06 A2982 RMK A01 T00201056  RH  057%=      5-min Rain = 0
KPPS 231445Z 24021G27KT 02/M06 A2983 RMK A01 T00221055  RH  057%=      5-min Rain = 0
KPPS 231450Z 24021G27KT 02/M06 A2983 RMK A01 T00231056  RH  056%=      5-min Rain = 0
KPPS 231455Z 24022G29KT 03/M06 A2983 RMK A01 T00251055  RH  056%=      5-min Rain = 0
KPPS 231500Z 24022G27KT 03/M06 A2983 RMK A01 T00271056  RH  055%=      5-min Rain = 0
KPPS 231505Z 24022G29KT 03/M06 A2983 RMK A01 T00301055  RH  054%=      5-min Rain = 0
KPPS 231510Z 24022G29KT 03/M06 A2984 RMK A01 T00321056  RH  053%=      5-min Rain = 0
KPPS 231515Z 24022KT 04/M06 A2984 RMK A01 T00351055  RH  052%=      5-min Rain = 0
KPPS 231520Z 25024G32KT 04/M06 A2984 RMK A01 T00381058  RH  050%=      5-min Rain = 0
KPPS 231525Z 25024G30KT 04/M06 A2984 RMK A01 T00401059  RH  049%=      5-min Rain = 0
KPPS 231530Z 25024G30KT 04/M06 A2984 RMK A01 T00441058  RH  047%=      5-min Rain = 0
KPPS 231535Z 25027G33KT 05/M06 A2984 RMK A01 T00471062  RH  045%=      5-min Rain = 0
KPPS 231540Z 25028G34KT 05/M07 A2984 RMK A01 T00491066  RH  043%=      5-min Rain = 0
KPPS 231545Z 26027G34KT 05/M06 A2984 RMK A01 T00521064  RH  043%=      5-min Rain = 0
KPPS 231550Z 26028G39KT 05/M07 A2985 RMK A01 T00541067  RH  041%=      5-min Rain = 0
KPPS 231555Z 26028G40KT 06/M07 A2985 RMK A01 T00551071  RH  040%=      5-min Rain = 0
KPPS 231600Z 26027G36KT 06/M07 A2986 RMK A01 T00581068  RH  040%=      5-min Rain = 0
KPPS 231605Z 26028G38KT 06/M07 A2986 RMK A01 T00601069  RH  039%=      5-min Rain = 0
KPPS 231610Z 26029G36KT 06/M07 A2986 RMK A01 T00611071  RH  038%=      5-min Rain = 0
KPPS 231615Z 26031G40KT 06/M07 A2986 RMK A01 T00621072  RH  038%=      5-min Rain = 0
KPPS 231620Z 26028G38KT 06/M07 A2986 RMK A01 T00631071  RH  037%=      5-min Rain = 0
KPPS 231625Z 26028G37KT 07/M07 A2986 RMK A01 T00671069  RH  037%=      5-min Rain = 0
KPPS 231630Z 27026G36KT 07/M07 A2986 RMK A01 T00691068  RH  037%=      5-min Rain = 0
KPPS 231635Z 27029G38KT 07/M07 A2986 RMK A01 T00711070  RH  036%=      5-min Rain = 0
KPPS 231640Z 26032G42KT 07/M07 A2986 RMK A01 T00711073  RH  035%=      5-min Rain = 0
KPPS 231645Z 27030G38KT 07/M07 A2987 RMK A01 T00741071  RH  035%=      5-min Rain = 0
KPPS 231650Z 27028G38KT 08/M07 A2987 RMK A01 T00771069  RH  035%=      5-min Rain = 0
KPPS 231655Z 27034G41KT 08/M08 A2987 RMK A01 T00771079  RH  032%=      5-min Rain = 0
KPPS 231700Z 28032G40KT 08/M08 A2988 RMK A01 T00781077  RH  032%=      5-min Rain = 0
KPPS 231705Z 28035G44KT 08/M08 A2988 RMK A01 T00781082  RH  031%=      5-min Rain = 0
KPPS 231710Z 28033G43KT 08/M08 A2989 RMK A01 T00801082  RH  031%=      5-min Rain = 0
KPPS 231715Z 28033G44KT 08/M08 A2989 RMK A01 T00811079  RH  031%=      5-min Rain = 0
KPPS 231720Z 28032G40KT 08/M08 A299 RMK A01 T00811079  RH  031%=      5-min Rain = 0
KPPS 231725Z 28034G41KT 08/M08 A299 RMK A01 T00821080  RH  031%=      5-min Rain = 0
KPPS 231730Z 28032G39KT 08/M08 A299 RMK A01 T00831080  RH  031%=      5-min Rain = 0
KPPS 231735Z 27032G41KT 09/M08 A299 RMK A01 T00851079  RH  031%=      5-min Rain = 0
KPPS 231740Z 28033G40KT 08/M08 A2991 RMK A01 T00841081  RH  030%=      5-min Rain = 0
KPPS 231745Z 27031G39KT 08/M08 A2991 RMK A01 T00841080  RH  030%=      5-min Rain = 0
KPPS 231750Z 28031G37KT 09/M08 A2992 RMK A01 T00851081  RH  030%=      5-min Rain = 0
KPPS 231755Z 28029G39KT 09/M08 A2993 RMK A01 T00891075  RH  030%=      5-min Rain = 0
KPPS 231800Z 29029G36KT 09/M08 A2993 RMK A01 T00901079  RH  029%=      5-min Rain = 0
KPPS 231805Z 28030G43KT 09/M08 A2992 RMK A01 T00911078  RH  029%=      5-min Rain = 0
KPPS 231810Z 29031G42KT 09/M08 A2993 RMK A01 T00941080  RH  028%=      5-min Rain = 0
KPPS 231815Z 28032G41KT 09/M08 A2993 RMK A01 T00921084  RH  028%=      5-min Rain = 0
KPPS 231820Z 28031G39KT 09/M08 A2993 RMK A01 T00931082  RH  028%=      5-min Rain = 0
KPPS 231825Z 29030G41KT 09/M08 A2993 RMK A01 T00931082  RH  028%=      5-min Rain = 0
KPPS 231830Z 29033G45KT 09/M08 A2993 RMK A01 T00931082  RH  028%=      5-min Rain = 0
KPPS 231835Z 29032G40KT 09/M08 A2993 RMK A01 T00941079  RH  029%=      5-min Rain = 0
KPPS 231840Z 29029G37KT 10/M08 A2993 RMK A01 T00951079  RH  028%=      5-min Rain = 0
KPPS 231845Z 29029G39KT 10/M08 A2993 RMK A01 T00951078  RH  029%=      5-min Rain = 0
KPPS 231850Z 29031G38KT 10/M08 A2993 RMK A01 T00971077  RH  028%=      5-min Rain = 0
KPPS 231855Z 29029G37KT 10/M08 A2993 RMK A01 T00981079  RH  028%=      5-min Rain = 0
KPPS 231900Z 29028G35KT 10/M08 A2993 RMK A01 T01021078  RH  027%=      5-min Rain = 0
KPPS 231905Z 29026G34KT 11/M08 A2993 RMK A01 T01061075  RH  027%=      5-min Rain = 0
KPPS 231910Z 30028G36KT 11/M08 A2994 RMK A01 T01061084  RH  025%=      5-min Rain = 0
KPPS 231915Z 30028G39KT 10/M09 A2994 RMK A01 T01041087  RH  025%=      5-min Rain = 0
KPPS 231920Z 30030G37KT 10/M09 A2994 RMK A01 T01031088  RH  025%=      5-min Rain = 0
KPPS 231925Z 30029G37KT 10/M09 A2994 RMK A01 T01031087  RH  025%=      5-min Rain = 0
KPPS 231930Z 29028G35KT 11/M08 A2994 RMK A01 T01081083  RH  025%=      5-min Rain = 0
KPPS 231935Z 29030G37KT 11/M08 A2994 RMK A01 T01081084  RH  025%=      5-min Rain = 0
KPPS 231940Z 29026G33KT 11/M08 A2994 RMK A01 T01101083  RH  025%=      5-min Rain = 0
KPPS 231945Z 29025G34KT 11/M08 A2994 RMK A01 T01121081  RH  025%=      5-min Rain = 0
KPPS 231950Z 29026G37KT 11/M08 A2993 RMK A01 T01111083  RH  025%=      5-min Rain = 0
KPPS 231955Z 29026G33KT 11/M08 A2993 RMK A01 T01121082  RH  025%=      5-min Rain = 0
KPPS 232000Z 30026G34KT 11/M09 A2993 RMK A01 T01111086  RH  024%=      5-min Rain = 0
KPPS 232005Z 30024G34KT 11/M08 A2994 RMK A01 T01121084  RH  024%=      5-min Rain = 0
KPPS 232010Z 30025G32KT 12/M08 A2994 RMK A01 T01151081  RH  024%=      5-min Rain = 0
KPPS 232015Z 30024G32KT 12/M08 A2994 RMK A01 T01161080  RH  025%=      5-min Rain = 0
KPPS 232020Z 30025G33KT 11/M08 A2994 RMK A01 T01141084  RH  024%=      5-min Rain = 0
KPPS 232025Z 31023G32KT 11/M08 A2994 RMK A01 T01141083  RH  024%=      5-min Rain = 0
KPPS 232030Z 31023G30KT 12/M08 A2995 RMK A01 T01171083  RH  024%=      5-min Rain = 0
KPPS 232035Z 31023G31KT 12/M08 A2995 RMK A01 T01181083  RH  024%=      5-min Rain = 0
KPPS 232040Z 30022G29KT 12/M08 A2995 RMK A01 T01171084  RH  024%=      5-min Rain = 0
KPPS 232045Z 30019G24KT 12/M08 A2995 RMK A01 T01181083  RH  024%=      5-min Rain = 0
KPPS 232050Z 30020G27KT 12/M08 A2995 RMK A01 T01181084  RH  024%=      5-min Rain = 0
KPPS 232055Z 30023G30KT 12/M08 A2995 RMK A01 T01201084  RH  023%=      5-min Rain = 0
KPPS 232100Z 31022G29KT 12/M09 A2996 RMK A01 T01211085  RH  023%=      5-min Rain = 0
KPPS 232105Z 31020G26KT 12/M09 A2996 RMK A01 T01201086  RH  023%=      5-min Rain = 0
KPPS 232110Z 31019G26KT 12/M09 A2996 RMK A01 T01231085  RH  023%=      5-min Rain = 0
KPPS 232115Z 30020G28KT 12/M09 A2996 RMK A01 T01231087  RH  022%=      5-min Rain = 0
KPPS 232120Z 30021G30KT 12/M09 A2996 RMK A01 T01221090  RH  022%=      5-min Rain = 0
KPPS 232125Z 30018G24KT 12/M09 A2997 RMK A01 T01241088  RH  022%=      5-min Rain = 0
KPPS 232130Z 30021G27KT 13/M09 A2996 RMK A01 T01261089  RH  021%=      5-min Rain = 0
KPPS 232135Z 32021G26KT 12/M09 A2997 RMK A01 T01241091  RH  021%=      5-min Rain = 0
KPPS 232140Z 31019G25KT 12/M09 A2997 RMK A01 T01241094  RH  021%=      5-min Rain = 0
KPPS 232145Z 31018G25KT 13/M09 A2997 RMK A01 T01281091  RH  021%=      5-min Rain = 0
KPPS 232150Z 30020G27KT 13/M10 A2997 RMK A01 T01261096  RH  020%=      5-min Rain = 0
KPPS 232155Z 29017G22KT 13/M09 A2997 RMK A01 T01291094  RH  020%=      5-min Rain = 0
KPPS 232200Z 31018G23KT 13/M10 A2998 RMK A01 T01281095  RH  020%=      5-min Rain = 0
KPPS 232205Z 31019G25KT 13/M10 A2998 RMK A01 T01261100  RH  020%=      5-min Rain = 0
KPPS 232210Z 31017KT 13/M10 A2998 RMK A01 T01271098  RH  020%=      5-min Rain = 0
KPPS 232215Z 31018G24KT 13/M10 A2998 RMK A01 T01281100  RH  019%=      5-min Rain = 0
KPPS 232220Z 31016G24KT 13/M10 A2998 RMK A01 T01251100  RH  020%=      5-min Rain = 0
KPPS 232225Z 29017G24KT 13/M10 A2998 RMK A01 T01271102  RH  019%=      5-min Rain = 0
KPPS 232230Z 29019G25KT 13/M10 A2999 RMK A01 T01291101  RH  019%=      5-min Rain = 0
KPPS 232235Z 30021G26KT 13/M11 A2999 RMK A01 T01271107  RH  018%=      5-min Rain = 0
KPPS 232240Z 31018G24KT 13/M11 A2999 RMK A01 T01261108  RH  018%=      5-min Rain = 0
KPPS 232245Z 30017G25KT 13/M11 A2999 RMK A01 T01281108  RH  018%=      5-min Rain = 0
KPPS 232250Z 30019G26KT 13/M11 A2999 RMK A01 T01261113  RH  018%=      5-min Rain = 0
KPPS 232255Z 31018G24KT 13/M11 A2999 RMK A01 T01271111  RH  018%=      5-min Rain = 0
KPPS 232300Z 31019G25KT 13/M12 A2999 RMK A01 T01261115  RH  017%=      5-min Rain = 0
KPPS 232305Z 30021G29KT 12/M12 A2999 RMK A01 T01241119  RH  017%=      5-min Rain = 0
KPPS 232310Z 30017KT 13/M12 A2999 RMK A01 T01251115  RH  017%=      5-min Rain = 0
KPPS 232315Z 30020G27KT 13/M12 A2999 RMK A01 T01261116  RH  017%=      5-min Rain = 0
KPPS 232320Z 31019KT 12/M12 A30 RMK A01 T01241120  RH  017%=      5-min Rain = 0
KPPS 232325Z 30019G24KT 13/M12 A30 RMK A01 T01251116  RH  017%=      5-min Rain = 0
KPPS 232330Z 30018G23KT 12/M12 A30 RMK A01 T01231118  RH  017%=      5-min Rain = 0
KPPS 232335Z 30020G25KT 12/M12 A30 RMK A01 T01231117  RH  018%=      5-min Rain = 0
KPPS 232340Z 30018G23KT 12/M12 A30 RMK A01 T01221118  RH  017%=      5-min Rain = 0
KPPS 232345Z 31015KT 12/M12 A30 RMK A01 T01221115  RH  018%=      5-min Rain = 0
KPPS 232350Z 30017G23KT 12/M12 A30 RMK A01 T01201117  RH  018%=      5-min Rain = 0
KPPS 232355Z 30017KT 12/M12 A3001 RMK A01 T01181119  RH  018%=      5-min Rain = 0
KPPS 240000Z 30017KT 12/M12 A3001 RMK A01 T01171120  RH  018%=      5-min Rain = 0
KPPS 240005Z 30017G22KT 12/M12 A3001 RMK A01 T01151121  RH  018%=      5-min Rain = 0
KPPS 240010Z 30016G21KT 11/M12 A3001 RMK A01 T01131121  RH  018%=      5-min Rain = 0
KPPS 240015Z 30015KT 11/M12 A3002 RMK A01 T01121119  RH  018%=      5-min Rain = 0
KPPS 240020Z 30013KT 11/M12 A3002 RMK A01 T01101117  RH  019%=      5-min Rain = 0
KPPS 240025Z 31013KT 11/M12 A3002 RMK A01 T01081117  RH  019%=      5-min Rain = 0
KPPS 240030Z 30011KT 11/M12 A3003 RMK A01 T01061116  RH  020%=      5-min Rain = 0
KPPS 240035Z 30010KT 10/M11 A3004 RMK A01 T01031113  RH  020%=      5-min Rain = 0
KPPS 240040Z 29008KT 10/M11 A3004 RMK A01 T00971109  RH  022%=      5-min Rain = 0
KPPS 240045Z 30008KT 09/M11 A3004 RMK A01 T00911107  RH  023%=      5-min Rain = 0
KPPS 240050Z 30008KT 08/M11 A3005 RMK A01 T00841106  RH  025%=      5-min Rain = 0
KPPS 240055Z 29008KT 08/M11 A3005 RMK A01 T00801106  RH  025%=      5-min Rain = 0
KPPS 240100Z 29008KT 07/M10 A3005 RMK A01 T00741104  RH  027%=      5-min Rain = 0
KPPS 240105Z 28008KT 07/M10 A3006 RMK A01 T00701103  RH  028%=      5-min Rain = 0
KPPS 240110Z 28008KT 06/M10 A3006 RMK A01 T00641102  RH  029%=      5-min Rain = 0
KPPS 240115Z 28008KT 06/M10 A3006 RMK A01 T00571102  RH  031%=      5-min Rain = 0
KPPS 240120Z 28008KT 06/M10 A3006 RMK A01 T00571102  RH  031%=      5-min Rain = 0
KPPS 240125Z 27008KT 05/M10 A3007 RMK A01 T00511101  RH  032%=      5-min Rain = 0
KPPS 240130Z 28008KT 04/M10 A3007 RMK A01 T00381097  RH  036%=      5-min Rain = 0
KPPS 240135Z 28008KT 04/M10 A3008 RMK A01 T00371097  RH  037%=      5-min Rain = 0
KPPS 240140Z 26008KT 03/M10 A3009 RMK A01 T00331097  RH  038%=      5-min Rain = 0
KPPS 240145Z 25007KT 03/M10 A301 RMK A01 T00271096  RH  040%=      5-min Rain = 0
KPPS 240150Z 25007KT 03/M10 A301 RMK A01 T00281095  RH  040%=      5-min Rain = 0
KPPS 240155Z 25008KT 03/M09 A301 RMK A01 T00281094  RH  040%=      5-min Rain = 0
KPPS 240200Z 26008KT 03/M09 A301 RMK A01 T00281092  RH  041%=      5-min Rain = 0
KPPS 240205Z 25009KT 03/M09 A301 RMK A01 T00261092  RH  041%=      5-min Rain = 0
KPPS 240210Z 25009KT 02/M09 A301 RMK A01 T00221090  RH  043%=      5-min Rain = 0
KPPS 240215Z 26011KT 02/M09 A3011 RMK A01 T00201090  RH  044%=      5-min Rain = 0
KPPS 240220Z 26012KT 02/M09 A3011 RMK A01 T00211089  RH  044%=      5-min Rain = 0
KPPS 240225Z 27011KT 02/M09 A3011 RMK A01 T00231089  RH  043%=      5-min Rain = 0
KPPS 240230Z 27010KT 03/M09 A3011 RMK A01 T00271089  RH  042%=      5-min Rain = 0
KPPS 240235Z 28011KT 04/M09 A3011 RMK A01 T00371092  RH  038%=      5-min Rain = 0
KPPS 240240Z 28012KT 04/M09 A3011 RMK A01 T00401093  RH  037%=      5-min Rain = 0
KPPS 240245Z 28011KT 04/M09 A3011 RMK A01 T00391094  RH  037%=      5-min Rain = 0
KPPS 240250Z 28011KT 03/M09 A3011 RMK A01 T00331092  RH  039%=      5-min Rain = 0
KPPS 240255Z 28010KT 03/M09 A3011 RMK A01 T00291092  RH  041%=      5-min Rain = 0
KPPS 240300Z 28008KT 03/M09 A3012 RMK A01 T00271092  RH  041%=      5-min Rain = 0
KPPS 240305Z 28009KT 02/M09 A3012 RMK A01 T00231092  RH  042%=      5-min Rain = 0
KPPS 240310Z 28008KT 02/M09 A3013 RMK A01 T00211091  RH  043%=      5-min Rain = 0
KPPS 240315Z 28008KT 02/M09 A3013 RMK A01 T00171091  RH  045%=      5-min Rain = 0
KPPS 240320Z 28009KT 02/M09 A3013 RMK A01 T00151090  RH  046%=      5-min Rain = 0
KPPS 240325Z 29010KT 02/M09 A3013 RMK A01 T00201090  RH  044%=      5-min Rain = 0
KPPS 240330Z 30010KT 02/M09 A3014 RMK A01 T00241089  RH  043%=      5-min Rain = 0
KPPS 240335Z 30010KT 03/M09 A3014 RMK A01 T00311089  RH  041%=      5-min Rain = 0
KPPS 240340Z 31011KT 04/M09 A3014 RMK A01 T00381089  RH  039%=      5-min Rain = 0
KPPS 240345Z 30011KT 05/M09 A3015 RMK A01 T00451091  RH  036%=      5-min Rain = 0
KPPS 240350Z 30011KT 05/M09 A3015 RMK A01 T00491092  RH  035%=      5-min Rain = 0
KPPS 240355Z 30012KT 05/M09 A3015 RMK A01 T00521092  RH  034%=      5-min Rain = 0
KPPS 240400Z 30012KT 05/M09 A3016 RMK A01 T00521092  RH  035%=      5-min Rain = 0
KPPS 240405Z 30013KT 05/M09 A3016 RMK A01 T00531091  RH  034%=      5-min Rain = 0
KPPS 240410Z 31012KT 05/M09 A3016 RMK A01 T00531091  RH  034%=      5-min Rain = 0
KPPS 240415Z 31012KT 05/M09 A3016 RMK A01 T00511090  RH  035%=      5-min Rain = 0
KPPS 240420Z 31011KT 05/M09 A3017 RMK A01 T00491089  RH  036%=      5-min Rain = 0
KPPS 240425Z 30011KT 05/M09 A3017 RMK A01 T00491089  RH  036%=      5-min Rain = 0
KPPS 240430Z 30010KT 05/M09 A3017 RMK A01 T00481089  RH  036%=      5-min Rain = 0
KPPS 240435Z 30010KT 05/M09 A3018 RMK A01 T00451089  RH  037%=      5-min Rain = 0
KPPS 240440Z 30010KT 04/M09 A3018 RMK A01 T00411088  RH  038%=      5-min Rain = 0
KPPS 240445Z 31010KT 04/M09 A3018 RMK A01 T00391088  RH  039%=      5-min Rain = 0
KPPS 240450Z 31011KT 04/M09 A3019 RMK A01 T00371087  RH  040%=      5-min Rain = 0
KPPS 240455Z 30012KT 04/M09 A3019 RMK A01 T00361087  RH  040%=      5-min Rain = 0
KPPS 240500Z 30012KT 04/M09 A3019 RMK A01 T00361086  RH  040%=      5-min Rain = 0
KPPS 240505Z 30013KT 04/M09 A3019 RMK A01 T00371086  RH  040%=      5-min Rain = 0
KPPS 240510Z 30012KT 04/M09 A3019 RMK A01 T00401086  RH  039%=      5-min Rain = 0
KPPS 240515Z 31012KT 04/M09 A3019 RMK A01 T00401086  RH  039%=      5-min Rain = 0
KPPS 240520Z 31011KT 04/M09 A3019 RMK A01 T00391086  RH  040%=      5-min Rain = 0
KPPS 240525Z 31010KT 04/M09 A3019 RMK A01 T00361086  RH  040%=      5-min Rain = 0
KPPS 240530Z 31010KT 04/M09 A302 RMK A01 T00351086  RH  041%=      5-min Rain = 0
KPPS 240535Z 31009KT 03/M09 A302 RMK A01 T00311085  RH  042%=      5-min Rain = 0
KPPS 240540Z 32008KT 03/M09 A302 RMK A01 T00251085  RH  044%=      5-min Rain = 0
KPPS 240545Z 31007KT 02/M09 A3021 RMK A01 T00201085  RH  046%=      5-min Rain = 0
KPPS 240550Z 31007KT 02/M09 A3021 RMK A01 T00221085  RH  045%=      5-min Rain = 0
KPPS 240555Z 31007KT 02/M09 A3021 RMK A01 T00231086  RH  044%=      5-min Rain = 0

Page generated in 0.0095 seconds.